createdAt,value
2022-10-15T00:02:16.063Z,5.23
2022-10-15T00:07:36.825Z,4.83
2022-10-15T00:12:39.168Z,5.97
2022-10-15T00:17:41.458Z,6.90
2022-10-15T00:22:43.762Z,5.87
2022-10-15T00:27:46.477Z,5.47
2022-10-15T00:32:48.672Z,4.67
2022-10-15T00:38:09.549Z,5.10
2022-10-15T00:43:12.170Z,5.57
2022-10-15T00:48:14.475Z,4.60
2022-10-15T00:53:17.246Z,5.13
2022-10-15T00:58:28.714Z,4.77
2022-10-15T01:03:31.167Z,5.10
2022-10-15T01:08:34.787Z,4.80
2022-10-15T01:14:00.348Z,5.33
2022-10-15T01:19:06.834Z,5.83
2022-10-15T01:24:58.300Z,4.33
2022-10-15T01:30:25.815Z,5.68
2022-10-15T01:35:50.893Z,4.70
2022-10-15T01:41:29.355Z,4.10
2022-10-15T01:46:43.360Z,5.37
2022-10-15T01:51:51.861Z,5.47
2022-10-15T01:56:55.071Z,4.57
2022-10-15T02:02:16.320Z,5.03
2022-10-15T02:07:18.676Z,5.93
2022-10-15T02:13:04.004Z,5.00
2022-10-15T02:18:24.739Z,4.93
2022-10-15T02:24:02.429Z,4.87
2022-10-15T02:29:06.574Z,4.67
2022-10-15T02:34:12.492Z,5.50
2022-10-15T02:39:34.381Z,4.70
2022-10-15T02:44:36.726Z,5.43
2022-10-15T02:49:39.610Z,5.50
2022-10-15T02:54:42.722Z,5.40
2022-10-15T02:59:45.101Z,5.10
2022-10-15T03:05:06.168Z,5.07
2022-10-15T03:10:08.531Z,5.00
2022-10-15T03:15:29.730Z,6.30
2022-10-15T03:20:32.410Z,7.57
2022-10-15T03:25:34.791Z,7.67
2022-10-15T03:30:39.988Z,7.53
2022-10-15T03:35:42.807Z,7.73
2022-10-15T03:40:46.198Z,6.43
2022-10-15T03:46:16.858Z,7.00
2022-10-15T03:51:24.522Z,6.07
2022-10-15T03:56:35.303Z,5.10
2022-10-15T04:01:54.176Z,5.47
2022-10-15T04:06:56.607Z,5.73
2022-10-15T04:11:59.758Z,5.13
2022-10-15T04:17:02.352Z,5.37
2022-10-15T04:22:25.233Z,5.40
2022-10-15T04:27:32.728Z,5.90
2022-10-15T04:32:42.142Z,5.22
2022-10-15T04:37:44.467Z,4.70
2022-10-15T04:42:46.797Z,4.60
2022-10-15T04:47:49.539Z,5.67
2022-10-15T04:52:53.433Z,4.87
2022-10-15T04:58:00.096Z,6.77
2022-10-15T05:03:06.736Z,5.40
2022-10-15T05:08:24.487Z,5.50
2022-10-15T05:13:40.659Z,5.00
2022-10-15T05:18:45.810Z,4.80
2022-10-15T05:23:50.307Z,4.97
2022-10-15T05:29:14.860Z,5.27
2022-10-15T05:34:35.554Z,4.90
2022-10-15T05:39:42.825Z,4.67
2022-10-15T05:44:46.417Z,4.43
2022-10-15T05:50:11.018Z,4.70
2022-10-15T05:55:18.892Z,4.50
2022-10-15T06:00:21.265Z,4.37
2022-10-15T06:05:30.961Z,4.37
2022-10-15T06:10:38.064Z,4.63
2022-10-15T06:15:41.597Z,4.63
2022-10-15T06:20:45.734Z,5.33
2022-10-15T06:25:49.744Z,5.07
2022-10-15T06:30:52.011Z,5.20
2022-10-15T06:35:59.744Z,4.90
2022-10-15T06:41:06.346Z,4.60
2022-10-15T06:46:27.201Z,4.50
2022-10-15T06:51:32.296Z,4.97
2022-10-15T06:56:34.531Z,4.27
2022-10-15T07:01:41.503Z,4.20
2022-10-15T07:06:54.355Z,3.93
2022-10-15T07:11:58.155Z,4.27
2022-10-15T07:17:01.437Z,4.07
2022-10-15T07:22:04.735Z,6.40
2022-10-15T07:27:17.129Z,4.23
2022-10-15T07:32:21.287Z,3.70
2022-10-15T07:37:26.626Z,3.27
2022-10-15T07:42:28.823Z,3.57
2022-10-15T07:47:31.142Z,3.63
2022-10-15T07:52:36.000Z,3.57
2022-10-15T07:57:38.303Z,3.47
2022-10-15T08:02:41.058Z,4.43
2022-10-15T08:07:44.459Z,3.30
2022-10-15T08:12:48.870Z,5.37
2022-10-15T08:17:51.166Z,3.00
2022-10-15T08:23:17.285Z,4.00
2022-10-15T08:28:19.665Z,3.60
2022-10-15T08:33:22.024Z,3.90
2022-10-15T08:38:25.153Z,2.80
2022-10-15T08:43:38.454Z,2.93
2022-10-15T08:48:52.004Z,3.20
2022-10-15T08:53:58.420Z,2.80
2022-10-15T08:59:33.389Z,2.60
2022-10-15T09:04:51.212Z,3.73
2022-10-15T09:10:18.764Z,3.53
2022-10-15T09:15:24.113Z,3.55
2022-10-15T09:20:35.034Z,4.47
2022-10-15T09:25:38.524Z,3.73
2022-10-15T09:30:53.823Z,3.87
2022-10-15T09:36:17.756Z,3.23
2022-10-15T09:41:57.894Z,3.87
2022-10-15T09:47:15.712Z,2.77
2022-10-15T09:52:52.195Z,3.40
2022-10-15T09:58:00.746Z,2.77
2022-10-15T10:03:08.343Z,3.27
2022-10-15T10:08:11.789Z,2.90
2022-10-15T10:13:25.753Z,2.60
2022-10-15T10:18:28.568Z,3.77
2022-10-15T10:23:39.654Z,4.27
2022-10-15T10:28:57.092Z,4.80
2022-10-15T10:34:07.477Z,5.30
2022-10-15T10:39:10.548Z,3.20
2022-10-15T10:44:21.820Z,3.73
2022-10-15T10:49:35.692Z,3.43
2022-10-15T10:54:39.377Z,3.40
2022-10-15T11:00:01.344Z,3.80
2022-10-15T11:05:05.747Z,3.80
2022-10-15T11:10:42.420Z,4.40
2022-10-15T11:15:56.399Z,3.83
2022-10-15T11:21:31.392Z,4.27
2022-10-15T11:26:37.527Z,4.03
2022-10-15T11:32:42.102Z,3.80
2022-10-15T11:38:18.358Z,4.37
2022-10-15T11:43:38.777Z,4.40
2022-10-15T11:49:07.088Z,4.00
2022-10-15T11:54:43.573Z,3.50
2022-10-15T11:59:57.106Z,3.43
2022-10-15T12:05:06.095Z,5.43
2022-10-15T12:10:33.255Z,3.88
2022-10-15T12:15:54.113Z,4.13
2022-10-15T12:20:58.743Z,3.50
2022-10-15T12:26:01.020Z,4.00
2022-10-15T12:31:05.224Z,3.23
2022-10-15T12:36:20.120Z,3.97
2022-10-15T12:41:22.465Z,3.13
2022-10-15T12:46:43.553Z,2.73
2022-10-15T12:51:45.795Z,3.60
2022-10-15T12:56:49.953Z,3.10
2022-10-15T13:01:53.545Z,2.87
2022-10-15T13:07:04.112Z,3.03
2022-10-15T13:12:06.456Z,3.20
2022-10-15T13:17:20.273Z,3.13
2022-10-15T13:22:28.423Z,3.73
2022-10-15T13:27:37.936Z,2.83
2022-10-15T13:32:59.186Z,3.33
2022-10-15T13:38:03.685Z,3.83
2022-10-15T13:43:27.758Z,3.50
2022-10-15T13:48:32.143Z,4.10
2022-10-15T13:53:53.357Z,4.10
2022-10-15T13:58:56.209Z,3.63
2022-10-15T14:04:00.618Z,4.10
2022-10-15T14:09:27.305Z,6.03
2022-10-15T14:14:41.826Z,6.43
2022-10-15T14:20:26.355Z,10.23
2022-10-15T14:25:28.880Z,10.60
2022-10-15T14:30:32.929Z,8.53
2022-10-15T14:35:38.687Z,8.53
2022-10-15T14:40:41.092Z,8.43
2022-10-15T14:45:52.592Z,8.97
2022-10-15T14:50:59.531Z,10.33
2022-10-15T14:56:23.774Z,8.93
2022-10-15T15:01:27.855Z,11.37
2022-10-15T15:06:30.681Z,17.50
2022-10-15T15:11:32.924Z,24.03
2022-10-15T15:16:35.224Z,21.73
2022-10-15T15:21:37.414Z,22.23
2022-10-15T15:26:39.626Z,19.33
2022-10-15T15:31:43.000Z,23.07
2022-10-15T15:36:45.269Z,20.33
2022-10-15T15:41:47.889Z,23.33
2022-10-15T15:46:55.382Z,26.17
2022-10-15T15:51:57.639Z,23.87
2022-10-15T15:56:59.986Z,26.47
2022-10-15T16:02:04.704Z,23.33
2022-10-15T16:07:09.060Z,24.57
2022-10-15T16:12:14.132Z,23.53
2022-10-15T16:17:16.483Z,24.93
2022-10-15T16:22:18.864Z,31.97
2022-10-15T16:27:21.209Z,33.80
2022-10-15T16:32:23.907Z,27.40
2022-10-15T16:37:27.680Z,25.77
2022-10-15T16:42:30.304Z,20.73
2022-10-15T16:47:32.730Z,16.77
2022-10-15T16:52:36.814Z,20.63
2022-10-15T16:57:39.564Z,17.40
2022-10-15T17:02:43.071Z,25.40
2022-10-15T17:07:45.390Z,20.93
2022-10-15T17:13:06.316Z,18.57
2022-10-15T17:18:08.681Z,19.20
2022-10-15T17:23:10.951Z,17.77
2022-10-15T17:28:14.952Z,25.73
2022-10-15T17:33:17.337Z,24.37
2022-10-15T17:38:21.929Z,19.73
2022-10-15T17:43:43.916Z,18.73
2022-10-15T17:48:46.403Z,18.33
2022-10-15T17:53:51.685Z,17.63
2022-10-15T17:58:54.256Z,18.27
2022-10-15T18:03:56.765Z,19.63
2022-10-15T18:09:01.266Z,18.83
2022-10-15T18:14:04.308Z,21.47
2022-10-15T18:19:06.944Z,22.17
2022-10-15T18:24:09.232Z,22.20
2022-10-15T18:29:11.577Z,24.63
2022-10-15T18:34:14.134Z,23.97
2022-10-15T18:39:16.457Z,24.73
2022-10-15T18:44:21.685Z,24.30
2022-10-15T18:49:24.000Z,22.63
2022-10-15T18:54:26.225Z,20.80
2022-10-15T18:59:28.601Z,24.67
2022-10-15T19:04:33.384Z,20.63
2022-10-15T19:09:37.735Z,19.33
2022-10-15T19:14:40.239Z,21.07
2022-10-15T19:19:43.490Z,19.43
2022-10-15T19:24:45.753Z,18.83
2022-10-15T19:29:48.134Z,17.50
2022-10-15T19:34:50.501Z,16.30
2022-10-15T19:40:11.081Z,15.20
2022-10-15T19:50:40.478Z,14.07
2022-10-15T19:55:44.932Z,14.67
2022-10-15T20:01:06.865Z,14.03
2022-10-15T20:06:09.435Z,12.73
2022-10-15T20:11:30.703Z,12.77
2022-10-15T20:16:33.741Z,11.67
2022-10-15T20:21:37.918Z,12.03
2022-10-15T20:26:40.340Z,11.23
2022-10-15T20:31:42.593Z,11.33
2022-10-15T20:36:45.953Z,10.80
2022-10-15T20:41:51.753Z,11.67
2022-10-15T20:47:14.336Z,11.13
2022-10-15T20:52:24.473Z,11.67
2022-10-15T20:57:26.990Z,11.13
2022-10-15T21:02:29.848Z,11.70
2022-10-15T21:07:32.049Z,10.77
2022-10-15T21:12:36.936Z,10.00
2022-10-15T21:17:58.603Z,11.20
2022-10-15T21:23:01.500Z,11.57
2022-10-15T21:28:22.240Z,10.53
2022-10-15T21:33:24.721Z,10.30
2022-10-15T21:38:26.910Z,12.03
2022-10-15T21:43:29.175Z,11.87
2022-10-15T21:48:31.359Z,11.43
2022-10-15T21:53:33.642Z,10.23
2022-10-15T21:58:38.110Z,10.37
2022-10-15T22:03:40.778Z,9.10
2022-10-15T22:08:43.359Z,9.77
2022-10-15T22:14:06.893Z,9.27
2022-10-15T22:19:11.863Z,9.07
2022-10-15T22:24:33.198Z,6.50
2022-10-15T22:29:35.582Z,7.40
2022-10-15T22:34:37.818Z,7.27
2022-10-15T22:39:40.772Z,8.57
2022-10-15T22:44:42.984Z,7.20
2022-10-15T22:49:45.324Z,7.60
2022-10-15T22:54:47.555Z,6.50
2022-10-15T22:59:57.174Z,7.27
2022-10-15T23:05:01.587Z,8.23
2022-10-15T23:10:22.906Z,7.80
2022-10-15T23:15:25.083Z,6.77
2022-10-15T23:20:27.346Z,6.93
2022-10-15T23:25:30.659Z,6.57
2022-10-15T23:30:32.872Z,7.13
2022-10-15T23:41:07.634Z,6.77
2022-10-15T23:46:10.145Z,6.90
2022-10-15T23:51:21.873Z,6.10
2022-10-15T23:56:24.744Z,7.53
